createdAt,value
2019-02-18T00:02:07.856Z,17.35
2019-02-18T00:08:12.349Z,17.25
2019-02-18T00:14:16.534Z,17.10
2019-02-18T00:20:20.790Z,16.48
2019-02-18T00:26:25.049Z,17.00
2019-02-18T00:32:29.562Z,16.60
2019-02-18T00:38:33.872Z,16.17
2019-02-18T00:44:38.091Z,15.98
2019-02-18T00:50:42.301Z,14.98
2019-02-18T00:56:46.610Z,15.88
2019-02-18T01:02:50.813Z,15.72
2019-02-18T01:08:55.149Z,15.25
2019-02-18T01:14:59.377Z,14.95
2019-02-18T01:21:06.541Z,14.73
2019-02-18T01:27:10.761Z,15.35
2019-02-18T01:33:14.950Z,14.20
2019-02-18T01:39:19.184Z,15.70
2019-02-18T01:45:23.374Z,15.78
2019-02-18T01:51:27.573Z,15.13
2019-02-18T01:57:31.784Z,15.03
2019-02-18T02:03:36.051Z,15.08
2019-02-18T02:09:40.249Z,14.93
2019-02-18T02:15:44.767Z,15.10
2019-02-18T02:21:48.996Z,15.50
2019-02-18T02:27:53.251Z,14.53
2019-02-18T02:33:57.479Z,15.63
2019-02-18T02:40:02.475Z,15.45
2019-02-18T02:46:06.726Z,16.47
2019-02-18T02:52:10.906Z,15.30
2019-02-18T02:58:15.112Z,15.30
2019-02-18T03:04:19.325Z,15.80
2019-02-18T03:10:23.670Z,14.83
2019-02-18T03:16:27.898Z,16.37
2019-02-18T03:22:32.274Z,16.63
2019-02-18T03:29:18.304Z,15.13
2019-02-18T03:35:22.609Z,14.97
2019-02-18T03:41:26.921Z,14.67
2019-02-18T03:47:31.215Z,16.10
2019-02-18T03:53:35.398Z,15.23
2019-02-18T03:59:39.638Z,37.27
2019-02-18T04:05:43.953Z,16.33
2019-02-18T04:11:48.261Z,15.07
2019-02-18T04:17:52.615Z,17.00
2019-02-18T04:23:56.838Z,15.00
2019-02-18T04:30:01.081Z,17.50
2019-02-18T04:36:05.383Z,17.40
2019-02-18T04:42:09.592Z,15.50
2019-02-18T04:48:13.946Z,15.77
2019-02-18T04:54:18.131Z,15.83
2019-02-18T05:00:22.567Z,15.43
2019-02-18T05:06:26.758Z,15.97
2019-02-18T05:12:31.149Z,16.70
2019-02-18T05:18:35.423Z,16.87
2019-02-18T05:24:39.683Z,18.27
2019-02-18T05:30:43.877Z,16.40
2019-02-18T05:36:49.737Z,17.33
2019-02-18T05:42:54.030Z,17.30
2019-02-18T05:48:58.225Z,16.67
2019-02-18T05:55:02.513Z,21.80
2019-02-18T06:01:06.805Z,25.33
2019-02-18T06:07:11.229Z,22.97
2019-02-18T06:13:15.555Z,18.97
2019-02-18T06:19:20.013Z,16.37
2019-02-18T06:25:24.353Z,16.47
2019-02-18T06:31:28.649Z,17.67
2019-02-18T06:37:32.898Z,16.23
2019-02-18T06:43:37.190Z,17.10
2019-02-18T06:49:41.574Z,17.47
2019-02-18T06:55:45.779Z,17.13
2019-02-18T07:02:00.406Z,17.57
2019-02-18T07:08:22.222Z,16.90
2019-02-18T07:14:26.540Z,18.17
2019-02-18T07:20:30.833Z,17.40
2019-02-18T07:26:35.049Z,15.97
2019-02-18T07:32:39.249Z,16.10
2019-02-18T07:38:43.462Z,15.57
2019-02-18T07:44:47.760Z,16.80
2019-02-18T07:50:52.052Z,16.53
2019-02-18T07:56:56.408Z,15.87
2019-02-18T08:03:00.602Z,16.63
2019-02-18T08:09:06.008Z,16.70
2019-02-18T08:15:10.217Z,16.57
2019-02-18T08:21:14.411Z,16.57
2019-02-18T08:27:18.630Z,15.65
2019-02-18T08:33:23.003Z,15.97
2019-02-18T08:39:27.286Z,16.20
2019-02-18T08:45:31.572Z,15.88
2019-02-18T08:51:35.801Z,14.43
2019-02-18T08:57:40.075Z,16.12
2019-02-18T09:03:44.424Z,14.95
2019-02-18T09:09:51.142Z,15.05
2019-02-18T09:16:00.066Z,16.93
2019-02-18T09:22:19.598Z,15.63
2019-02-18T09:28:23.930Z,16.62
2019-02-18T09:34:28.279Z,15.95
2019-02-18T09:40:32.562Z,15.50
2019-02-18T09:46:36.805Z,16.15
2019-02-18T09:52:41.093Z,17.07
2019-02-18T09:58:45.351Z,16.97
2019-02-18T10:04:49.629Z,17.02
2019-02-18T10:10:56.164Z,17.00
2019-02-18T10:16:59.831Z,17.52
2019-02-18T10:23:04.032Z,17.52
2019-02-18T10:29:08.358Z,17.55
2019-02-18T10:35:12.590Z,15.95
2019-02-18T10:41:19.224Z,17.23
2019-02-18T10:47:22.816Z,18.75
2019-02-18T10:53:27.288Z,18.48
2019-02-18T10:59:31.691Z,17.45
2019-02-18T11:05:35.888Z,16.80
2019-02-18T11:11:40.197Z,16.87
2019-02-18T11:17:44.389Z,15.98
2019-02-18T11:23:48.699Z,16.00
2019-02-18T11:29:52.900Z,17.23
2019-02-18T11:35:57.110Z,15.40
2019-02-18T11:42:01.468Z,13.58
2019-02-18T11:48:08.362Z,14.98
2019-02-18T11:54:12.858Z,14.68
2019-02-18T12:00:17.207Z,13.62
2019-02-18T12:06:21.567Z,14.35
2019-02-18T12:12:25.930Z,13.62
2019-02-18T12:18:30.198Z,13.65
2019-02-18T12:24:34.485Z,14.03
2019-02-18T12:30:38.702Z,13.72
2019-02-18T12:36:43.000Z,13.38
2019-02-18T12:42:47.649Z,12.60
2019-02-18T12:48:51.890Z,14.13
2019-02-18T12:54:56.243Z,13.38
2019-02-18T13:01:00.579Z,12.80
2019-02-18T13:07:04.948Z,12.07
2019-02-18T13:13:09.282Z,13.03
2019-02-18T13:19:14.099Z,13.35
2019-02-18T13:25:18.483Z,13.43
2019-02-18T13:31:23.141Z,13.53
2019-02-18T13:37:27.520Z,14.83
2019-02-18T13:43:34.943Z,11.83
2019-02-18T13:49:39.492Z,12.23
2019-02-18T13:55:43.775Z,12.13
2019-02-18T14:01:48.050Z,12.47
2019-02-18T14:07:52.369Z,12.03
2019-02-18T14:13:56.970Z,11.35
2019-02-18T14:20:01.334Z,12.93
2019-02-18T14:26:06.090Z,12.00
2019-02-18T14:32:10.431Z,11.83
2019-02-18T14:38:14.740Z,10.68
2019-02-18T14:44:19.096Z,10.32
2019-02-18T14:50:23.390Z,11.53
2019-02-18T14:56:27.751Z,10.30
2019-02-18T15:02:32.129Z,11.85
2019-02-18T15:08:36.622Z,11.25
2019-02-18T15:14:42.683Z,11.30
2019-02-18T15:20:47.028Z,11.45
2019-02-18T15:26:51.384Z,11.28
2019-02-18T15:32:55.622Z,11.73
2019-02-18T15:38:59.898Z,15.20
2019-02-18T15:45:04.360Z,12.90
2019-02-18T15:51:08.741Z,13.20
2019-02-18T15:57:13.326Z,13.78
2019-02-18T16:03:17.740Z,13.10
2019-02-18T16:09:22.055Z,12.47
2019-02-18T16:15:26.322Z,12.10
2019-02-18T16:21:30.750Z,12.55
2019-02-18T16:27:35.011Z,12.60
2019-02-18T16:33:39.327Z,11.55
2019-02-18T16:39:43.621Z,12.98
2019-02-18T16:45:47.931Z,11.83
2019-02-18T16:51:52.725Z,11.50
2019-02-18T16:57:57.083Z,13.98
2019-02-18T17:04:01.335Z,5.70
2019-02-18T17:10:05.641Z,12.80
2019-02-18T17:16:09.920Z,13.68
2019-02-18T17:22:14.294Z,14.07
2019-02-18T17:28:18.571Z,14.50
2019-02-18T17:34:22.867Z,16.55
2019-02-18T17:40:27.159Z,17.25
2019-02-18T17:46:31.476Z,16.95
2019-02-18T17:52:35.818Z,41.20
2019-02-18T17:58:40.126Z,25.25
2019-02-18T18:04:44.787Z,18.32
2019-02-18T18:10:49.128Z,24.20
2019-02-18T18:16:53.595Z,25.68
2019-02-18T18:22:57.880Z,24.60
2019-02-18T18:29:02.201Z,26.60
2019-02-18T18:35:08.821Z,28.00
2019-02-18T18:41:13.126Z,26.42
2019-02-18T18:47:17.400Z,28.02
2019-02-18T18:53:21.807Z,30.43
2019-02-18T18:59:26.138Z,40.38
2019-02-18T19:05:30.904Z,28.35
2019-02-18T19:11:35.479Z,27.15
2019-02-18T19:17:39.721Z,46.58
2019-02-18T19:23:44.169Z,28.25
2019-02-18T19:29:48.454Z,38.73
2019-02-18T19:35:52.655Z,44.55
2019-02-18T19:41:56.859Z,52.00
2019-02-18T19:48:01.237Z,44.93
2019-02-18T19:54:05.604Z,46.65
2019-02-18T20:00:11.330Z,41.00
2019-02-18T20:06:15.609Z,36.03
2019-02-18T20:12:19.803Z,34.65
2019-02-18T20:18:24.095Z,27.95
2019-02-18T20:24:28.673Z,28.40
2019-02-18T20:30:32.918Z,25.25
2019-02-18T20:36:37.306Z,19.40
2019-02-18T20:42:41.628Z,16.75
2019-02-18T20:48:45.919Z,17.02
2019-02-18T20:54:50.609Z,13.90
2019-02-18T21:00:54.894Z,16.40
2019-02-18T21:06:59.178Z,16.10
2019-02-18T21:13:03.461Z,14.93
2019-02-18T21:19:07.764Z,15.78
2019-02-18T21:25:12.686Z,15.53
2019-02-18T21:31:17.327Z,14.20
2019-02-18T21:37:21.602Z,13.15
2019-02-18T21:43:25.976Z,12.33
2019-02-18T21:49:30.506Z,12.55
2019-02-18T21:55:34.740Z,11.38
2019-02-18T22:01:39.084Z,13.40
2019-02-18T22:07:43.613Z,13.38
2019-02-18T22:13:47.817Z,12.18
2019-02-18T22:19:52.130Z,11.48
2019-02-18T22:25:56.425Z,11.25
2019-02-18T22:32:00.769Z,9.33
2019-02-18T22:38:05.047Z,10.35
2019-02-18T22:44:09.474Z,8.08
2019-02-18T22:50:13.959Z,6.85
2019-02-18T22:56:18.223Z,5.50
2019-02-18T23:02:22.507Z,5.67
2019-02-18T23:08:26.767Z,6.40
2019-02-18T23:14:31.171Z,6.75
2019-02-18T23:20:35.369Z,6.83
2019-02-18T23:26:39.583Z,6.90
2019-02-18T23:32:43.816Z,5.95
2019-02-18T23:38:48.468Z,5.60
2019-02-18T23:44:59.008Z,5.80
2019-02-18T23:50:58.586Z,6.00
2019-02-18T23:57:02.968Z,4.50
